Time;durP1;ratioP1;P1;durP2;ratioP2;P2;SDS_P1;SDS_P2;PMS_P1;PMS_P2;Temp;Humidity;BMP_temperature;BMP_pressure;BME280_temperature;BME280_humidity;BME280_pressure;Samples;Min_cycle;Max_cycle;Signal;HPM_P1;HPM_P2
2023/03/30 00:01:16;;;;;;;12.60;2.40;;;11.20;98.00;;;;;;5051646;28;20463;-69
2023/03/30 00:03:46;;;;;;;3.10;2.13;;;11.30;98.00;;;;;;5051618;28;20465;-70
2023/03/30 00:06:20;;;;;;;11.40;2.10;;;11.30;98.00;;;;;;5051712;28;20462;-71
2023/03/30 00:08:48;;;;;;;7.70;2.63;;;11.30;98.00;;;;;;5051539;28;20480;-70
2023/03/30 00:11:17;;;;;;;4.03;1.87;;;11.30;98.00;;;;;;5051768;28;20533;-70
2023/03/30 00:13:44;;;;;;;4.50;2.33;;;11.20;98.00;;;;;;5035458;28;20460;-70
2023/03/30 00:16:13;;;;;;;3.40;2.50;;;11.20;98.00;;;;;;5055547;28;20458;-69
2023/03/30 00:18:41;;;;;;;5.77;3.17;;;11.20;98.00;;;;;;5055350;28;20464;-70
2023/03/30 00:21:10;;;;;;;4.93;2.90;;;11.20;98.00;;;;;;5055562;28;20463;-70
2023/03/30 00:23:37;;;;;;;4.47;2.20;;;11.30;98.00;;;;;;5055460;28;20456;-71
2023/03/30 00:26:05;;;;;;;3.53;1.73;;;11.20;98.00;;;;;;5053902;28;20455;-70
2023/03/30 00:28:33;;;;;;;11.30;2.87;;;11.20;98.00;;;;;;5055211;28;20549;-70
2023/03/30 00:31:00;;;;;;;3.00;1.70;;;11.20;98.00;;;;;;5055486;28;20571;-71
2023/03/30 00:33:28;;;;;;;8.70;1.80;;;11.20;98.00;;;;;;5055273;28;20459;-70
2023/03/30 00:35:55;;;;;;;2.07;1.60;;;11.20;98.00;;;;;;5055540;28;20460;-71
2023/03/30 00:38:26;;;;;;;2.57;1.70;;;11.30;98.00;;;;;;5055094;28;20466;-70
2023/03/30 00:40:55;;;;;;;5.63;1.90;;;11.40;98.00;;;;;;5055091;28;20547;-71
2023/03/30 00:43:24;;;;;;;4.73;2.30;;;11.50;98.00;;;;;;5054448;28;20556;-70
2023/03/30 00:45:52;;;;;;;4.07;2.20;;;11.70;98.00;;;;;;5054803;28;20456;-69
2023/03/30 00:48:22;;;;;;;3.97;2.43;;;11.70;98.00;;;;;;5054436;28;20543;-70
2023/03/30 00:50:55;;;;;;;3.40;2.20;;;11.70;98.00;;;;;;5054919;28;20460;-70
2023/03/30 00:53:27;;;;;;;7.53;1.83;;;11.60;98.00;;;;;;5053427;28;20534;-71
2023/03/30 00:55:56;;;;;;;8.13;2.13;;;11.70;98.00;;;;;;5054883;28;20941;-70
2023/03/30 00:58:24;;;;;;;4.37;2.33;;;11.70;98.00;;;;;;5054560;28;20509;-71
2023/03/30 01:00:52;;;;;;;2.97;2.00;;;11.80;98.00;;;;;;5054838;28;20467;-70
2023/03/30 01:03:24;;;;;;;5.37;2.70;;;11.70;98.00;;;;;;5054660;28;20455;-70
2023/03/30 01:05:54;;;;;;;4.63;2.40;;;11.70;98.00;;;;;;5054807;28;20466;-71
2023/03/30 01:08:26;;;;;;;11.67;1.87;;;11.80;98.00;;;;;;5054461;28;20570;-71
2023/03/30 01:10:54;;;;;;;11.60;2.13;;;11.70;98.00;;;;;;5054456;28;20461;-70
2023/03/30 01:13:24;;;;;;;7.00;1.80;;;11.80;98.00;;;;;;5054734;28;20489;-70
2023/03/30 01:16:03;;;;;;;3.60;2.43;;;11.70;98.00;;;;;;5054505;28;21199;-71
2023/03/30 01:18:43;;;;;;;2.60;1.87;;;11.70;98.00;;;;;;5054327;28;20439;-70
2023/03/30 01:21:58;;;;;;;2.67;1.90;;;11.80;98.00;;;;;;5054688;28;20455;-70
2023/03/30 01:25:04;;;;;;;2.90;2.10;;;11.80;98.00;;;;;;5051894;28;20486;-70
2023/03/30 01:28:21;;;;;;;3.03;2.00;;;11.70;98.00;;;;;;5044750;28;20487;-70
2023/03/30 01:31:16;;;;;;;2.00;1.73;;;11.60;98.00;;;;;;4992504;28;20855;-70
2023/03/30 01:34:07;;;;;;;2.80;2.00;;;11.60;98.00;;;;;;4992447;28;20459;-71
2023/03/30 01:37:07;;;;;;;4.23;1.93;;;11.50;98.00;;;;;;5041785;28;20451;-70
2023/03/30 01:39:45;;;;;;;5.77;2.20;;;11.60;98.00;;;;;;5053884;28;20536;-70
2023/03/30 01:42:19;;;;;;;5.97;2.10;;;11.60;98.00;;;;;;5054059;28;20462;-70
2023/03/30 01:44:53;;;;;;;2.50;1.90;;;11.60;98.00;;;;;;5053856;28;20522;-70
2023/03/30 01:47:24;;;;;;;3.00;2.10;;;11.70;98.00;;;;;;5053675;28;20475;-70
2023/03/30 01:49:58;;;;;;;3.13;1.93;;;11.70;98.00;;;;;;5053751;28;20461;-70
2023/03/30 01:52:30;;;;;;;2.70;1.90;;;11.60;98.00;;;;;;5053267;28;20468;-71
2023/03/30 01:55:04;;;;;;;4.90;2.33;;;11.50;98.00;;;;;;5053845;28;20464;-70
2023/03/30 01:57:35;;;;;;;2.47;1.80;;;11.40;98.00;;;;;;5052313;28;20458;-70
2023/03/30 02:00:13;;;;;;;3.07;2.00;;;11.40;98.00;;;;;;5053600;28;20461;-70
2023/03/30 02:02:45;;;;;;;3.63;1.87;;;11.40;98.00;;;;;;5053222;28;20890;-70
2023/03/30 02:05:16;;;;;;;2.83;1.70;;;11.40;98.00;;;;;;5053483;28;20548;-70
2023/03/30 02:07:49;;;;;;;4.10;1.97;;;11.40;98.00;;;;;;5053172;28;20853;-70
2023/03/30 02:10:22;;;;;;;2.23;1.97;;;11.50;98.00;;;;;;5053617;28;20468;-70
2023/03/30 02:12:50;;;;;;;3.10;2.07;;;11.60;98.00;;;;;;5053129;28;20934;-70
2023/03/30 02:15:21;;;;;;;3.00;1.80;;;11.80;98.00;;;;;;5053217;28;20513;-70
2023/03/30 02:17:48;;;;;;;5.73;2.27;;;11.70;98.00;;;;;;5051920;28;20460;-70
2023/03/30 02:20:17;;;;;;;2.80;2.00;;;11.60;98.00;;;;;;5053364;28;20505;-70
2023/03/30 02:22:45;;;;;;;5.07;2.07;;;11.40;98.00;;;;;;5053339;28;20939;-70
2023/03/30 02:25:14;;;;;;;2.77;1.90;;;11.40;98.00;;;;;;5052103;28;20480;-69
2023/03/30 02:27:43;;;;;;;2.77;2.00;;;11.40;98.00;;;;;;5053442;28;20484;-69
2023/03/30 02:30:21;;;;;;;3.10;1.70;;;11.50;98.00;;;;;;5053478;28;20453;-70
2023/03/30 02:32:52;;;;;;;13.13;2.23;;;11.60;98.00;;;;;;5052900;28;20468;-70
2023/03/30 02:35:35;;;;;;;6.37;2.10;;;11.80;98.00;;;;;;5051610;28;20469;-69
2023/03/30 02:38:28;;;;;;;2.57;1.70;;;12.00;98.00;;;;;;5052475;28;20480;-70
2023/03/30 02:41:05;;;;;;;3.00;1.70;;;12.10;98.00;;;;;;5053050;28;20551;-70
2023/03/30 02:43:41;;;;;;;3.57;2.20;;;12.10;98.00;;;;;;5052475;28;20465;-70
2023/03/30 02:46:23;;;;;;;5.43;2.47;;;12.00;98.00;;;;;;5052437;28;20464;-70
2023/03/30 02:49:01;;;;;;;3.00;2.07;;;11.80;98.00;;;;;;5052430;28;20495;-70
2023/03/30 02:51:43;;;;;;;3.23;2.10;;;11.80;98.00;;;;;;5052329;28;20555;-69
2023/03/30 02:54:24;;;;;;;2.67;1.93;;;11.80;98.00;;;;;;5051757;28;20464;-69
2023/03/30 02:56:59;;;;;;;8.67;2.20;;;12.00;98.00;;;;;;5052003;28;20466;-69
2023/03/30 02:59:32;;;;;;;7.43;1.80;;;12.20;98.00;;;;;;5051833;28;20487;-70
2023/03/30 03:02:05;;;;;;;5.43;2.30;;;12.30;98.00;;;;;;5052222;28;20455;-69
2023/03/30 03:04:34;;;;;;;7.30;2.30;;;12.50;98.00;;;;;;5052393;28;20455;-69
2023/03/30 03:07:01;;;;;;;3.30;2.33;;;12.70;98.00;;;;;;5052292;28;20457;-71
2023/03/30 03:09:29;;;;;;;3.17;2.30;;;12.90;98.00;;;;;;5052049;28;20486;-70
2023/03/30 03:11:57;;;;;;;2.47;1.67;;;13.00;98.00;;;;;;5052380;28;20461;-70
2023/03/30 03:14:25;;;;;;;8.40;2.10;;;13.20;98.00;;;;;;5052321;28;20513;-70
2023/03/30 03:16:54;;;;;;;2.17;1.83;;;13.30;98.00;;;;;;5052281;28;20466;-70
2023/03/30 03:19:21;;;;;;;4.80;1.87;;;13.30;98.00;;;;;;5052436;28;20495;-70
2023/03/30 03:21:49;;;;;;;4.20;1.60;;;13.40;98.00;;;;;;5052197;28;20551;-70
2023/03/30 03:24:17;;;;;;;3.07;1.60;;;13.40;98.00;;;;;;5052257;28;20469;-70
2023/03/30 03:26:45;;;;;;;3.73;1.60;;;13.40;98.00;;;;;;5052090;28;20465;-70
2023/03/30 03:29:13;;;;;;;3.50;1.87;;;13.40;98.00;;;;;;5052553;28;20515;-70
2023/03/30 03:31:40;;;;;;;5.77;1.80;;;13.40;98.00;;;;;;5050794;28;20463;-70
2023/03/30 03:34:12;;;;;;;2.50;1.73;;;13.30;98.00;;;;;;5051805;28;20460;-70
2023/03/30 03:36:39;;;;;;;3.53;1.90;;;13.30;98.00;;;;;;5051961;28;20464;-70
2023/03/30 03:39:06;;;;;;;3.80;1.70;;;13.20;98.00;;;;;;5051723;28;20460;-70
2023/03/30 03:41:34;;;;;;;4.60;1.77;;;13.20;98.00;;;;;;5051547;28;20556;-70
2023/03/30 03:44:01;;;;;;;5.67;2.00;;;13.20;98.00;;;;;;5051574;28;20469;-70
2023/03/30 03:46:28;;;;;;;2.87;1.60;;;13.10;98.00;;;;;;5051758;28;20457;-69
2023/03/30 03:48:55;;;;;;;3.13;1.80;;;13.00;98.00;;;;;;5053945;28;20484;-69
2023/03/30 03:51:24;;;;;;;7.27;1.87;;;12.90;98.00;;;;;;5055723;28;20977;-70
2023/03/30 03:53:52;;;;;;;2.23;1.93;;;12.80;98.00;;;;;;5055913;28;20462;-69
2023/03/30 03:56:20;;;;;;;6.40;2.33;;;12.70;98.00;;;;;;5054627;28;20511;-70
2023/03/30 03:58:47;;;;;;;2.60;1.90;;;12.70;98.00;;;;;;5055903;28;20935;-69
2023/03/30 04:01:14;;;;;;;2.53;1.93;;;12.70;98.00;;;;;;5055636;28;20472;-69
2023/03/30 04:03:42;;;;;;;2.17;1.60;;;12.60;98.00;;;;;;5055811;28;20479;-69
2023/03/30 04:06:10;;;;;;;8.00;2.17;;;12.50;98.00;;;;;;5055791;28;20956;-70
2023/03/30 04:08:39;;;;;;;2.93;1.77;;;12.50;98.00;;;;;;5055594;28;20491;-70
2023/03/30 04:11:07;;;;;;;4.10;1.50;;;12.50;98.00;;;;;;5055709;28;20488;-70
2023/03/30 04:13:35;;;;;;;6.90;2.37;;;12.50;98.00;;;;;;5055469;28;20502;-69
2023/03/30 04:16:03;;;;;;;7.63;1.80;;;12.50;98.00;;;;;;5055708;28;20484;-70
2023/03/30 04:18:32;;;;;;;2.93;1.80;;;12.40;98.00;;;;;;5055522;28;20460;-69
2023/03/30 04:21:01;;;;;;;4.93;2.10;;;12.40;98.00;;;;;;5055648;28;20950;-70
2023/03/30 04:23:32;;;;;;;10.20;2.17;;;12.30;98.00;;;;;;5055351;28;20452;-69
2023/03/30 04:26:01;;;;;;;2.53;1.73;;;12.30;98.00;;;;;;5055531;28;20457;-70
2023/03/30 04:28:30;;;;;;;6.73;2.17;;;12.30;98.00;;;;;;5055302;28;20546;-69
2023/03/30 04:30:59;;;;;;;2.60;2.20;;;12.40;98.00;;;;;;5055622;28;20464;-70
2023/03/30 04:33:26;;;;;;;2.60;1.80;;;12.40;98.00;;;;;;5055542;28;20460;-69
2023/03/30 04:35:54;;;;;;;3.87;1.60;;;12.40;98.00;;;;;;5055307;28;20457;-69
2023/03/30 04:38:22;;;;;;;1.80;1.50;;;12.40;98.00;;;;;;5055140;28;20463;-70
2023/03/30 04:40:52;;;;;;;7.37;2.27;;;12.40;98.00;;;;;;5055058;28;20551;-69
2023/03/30 04:43:21;;;;;;;5.10;2.00;;;12.30;98.00;;;;;;5054883;28;20498;-69
2023/03/30 04:45:50;;;;;;;3.53;2.03;;;12.30;98.00;;;;;;5054867;28;20456;-69
2023/03/30 04:48:18;;;;;;;2.47;1.70;;;12.20;98.00;;;;;;5054812;28;20487;-69
2023/03/30 04:50:46;;;;;;;2.80;1.90;;;12.20;98.00;;;;;;5054623;28;20473;-69
2023/03/30 04:53:14;;;;;;;5.93;1.90;;;12.30;98.00;;;;;;5054777;28;20449;-69
2023/03/30 04:55:42;;;;;;;7.73;2.23;;;12.30;98.00;;;;;;5053241;28;20883;-68
2023/03/30 04:58:12;;;;;;;5.83;2.10;;;12.30;98.00;;;;;;5054570;28;20453;-69
2023/03/30 05:00:41;;;;;;;3.27;2.17;;;12.20;98.00;;;;;;5053897;28;20521;-69
2023/03/30 05:03:09;;;;;;;6.10;1.83;;;12.20;98.00;;;;;;5054594;28;20465;-70
2023/03/30 05:05:37;;;;;;;26.63;2.07;;;12.20;98.00;;;;;;5054794;28;20558;-69
2023/03/30 05:08:06;;;;;;;4.20;1.80;;;12.20;98.00;;;;;;5054883;28;20865;-69
2023/03/30 05:10:34;;;;;;;3.00;1.70;;;12.20;98.00;;;;;;5054184;28;20471;-69
2023/03/30 05:13:01;;;;;;;3.80;2.10;;;12.30;98.00;;;;;;5053465;28;20463;-69
2023/03/30 05:15:28;;;;;;;2.40;1.60;;;12.40;98.00;;;;;;5054404;28;20969;-69
2023/03/30 05:17:57;;;;;;;5.47;1.83;;;12.30;98.00;;;;;;5054433;28;20466;-70
2023/03/30 05:20:24;;;;;;;2.67;1.70;;;12.30;98.00;;;;;;5054353;28;20467;-69
2023/03/30 05:22:52;;;;;;;10.57;1.90;;;12.20;98.00;;;;;;5054215;28;20452;-69
2023/03/30 05:25:20;;;;;;;4.90;1.83;;;12.20;98.00;;;;;;5054295;28;20457;-69
2023/03/30 05:27:51;;;;;;;9.70;2.20;;;12.10;98.00;;;;;;5054592;28;20457;-70
2023/03/30 05:30:18;;;;;;;3.47;2.10;;;12.00;98.00;;;;;;5054477;28;20491;-70
2023/03/30 05:32:46;;;;;;;6.90;2.10;;;12.00;98.00;;;;;;5054343;28;20483;-69
2023/03/30 05:35:16;;;;;;;3.53;1.70;;;12.00;98.00;;;;;;5054083;28;20971;-70
2023/03/30 05:37:43;;;;;;;4.00;2.00;;;12.10;98.00;;;;;;5053740;28;20462;-69
2023/03/30 05:40:12;;;;;;;5.70;2.40;;;12.10;98.00;;;;;;5054363;28;20454;-69
2023/03/30 05:42:39;;;;;;;2.57;1.80;;;12.00;98.00;;;;;;5053772;28;21189;-69
2023/03/30 05:45:08;;;;;;;3.83;1.70;;;12.00;98.00;;;;;;5054009;28;20466;-69
2023/03/30 05:47:35;;;;;;;3.80;2.30;;;12.00;98.00;;;;;;5053670;28;20504;-70
2023/03/30 05:50:02;;;;;;;3.63;2.10;;;12.10;98.00;;;;;;5052404;28;20492;-70
2023/03/30 05:52:31;;;;;;;3.10;1.70;;;12.10;98.00;;;;;;5053640;28;20464;-70
2023/03/30 05:54:58;;;;;;;5.63;2.10;;;12.10;98.00;;;;;;5053654;28;20457;-70
2023/03/30 05:57:25;;;;;;;3.03;1.70;;;12.20;98.00;;;;;;5053645;28;20943;-70
2023/03/30 05:59:53;;;;;;;3.60;2.10;;;12.10;98.00;;;;;;5053321;28;20456;-70
2023/03/30 06:02:20;;;;;;;9.03;2.57;;;12.20;98.00;;;;;;5052309;28;20791;-65
2023/03/30 06:04:47;;;;;;;10.33;2.40;;;12.20;98.00;;;;;;5053737;28;20474;-64
2023/03/30 06:07:16;;;;;;;5.30;2.60;;;12.20;98.00;;;;;;5053256;28;20446;-64
2023/03/30 06:09:45;;;;;;;4.70;2.37;;;12.30;98.00;;;;;;5052236;28;20559;-65
2023/03/30 06:12:14;;;;;;;4.23;2.37;;;12.30;98.00;;;;;;5052331;28;20869;-65
2023/03/30 06:14:41;;;;;;;6.00;2.70;;;12.40;98.00;;;;;;5053225;28;20462;-64
2023/03/30 06:17:11;;;;;;;8.30;2.43;;;12.50;98.00;;;;;;5053280;28;20906;-65
2023/03/30 06:19:38;;;;;;;43.57;3.00;;;12.50;98.00;;;;;;5053243;28;20453;-65
2023/03/30 06:22:06;;;;;;;4.60;2.30;;;12.50;98.00;;;;;;5053248;28;20513;-64
2023/03/30 06:24:34;;;;;;;4.93;2.70;;;12.40;98.00;;;;;;5055591;28;20457;-64
2023/03/30 06:27:04;;;;;;;6.13;2.63;;;12.40;98.00;;;;;;5053274;28;20827;-64
2023/03/30 06:29:34;;;;;;;4.60;2.13;;;12.30;98.00;;;;;;5053215;28;20492;-64
2023/03/30 06:32:04;;;;;;;4.50;1.93;;;12.30;98.00;;;;;;5053336;28;20455;-64
2023/03/30 06:34:32;;;;;;;3.93;1.93;;;12.50;98.00;;;;;;5052697;28;20498;-64
2023/03/30 06:36:59;;;;;;;3.73;2.20;;;12.50;98.00;;;;;;5052718;28;20452;-65
2023/03/30 06:39:26;;;;;;;5.13;2.33;;;12.40;98.00;;;;;;5052398;28;20484;-65
2023/03/30 06:41:53;;;;;;;7.47;2.40;;;12.30;98.00;;;;;;5052963;28;20543;-65
2023/03/30 06:44:22;;;;;;;5.77;2.83;;;12.30;98.00;;;;;;5051435;28;20504;-65
2023/03/30 06:46:49;;;;;;;5.43;1.97;;;12.30;98.00;;;;;;5052517;28;20518;-65
2023/03/30 06:49:16;;;;;;;4.27;2.60;;;12.40;98.00;;;;;;5052559;28;20538;-66
2023/03/30 06:51:44;;;;;;;11.43;3.00;;;12.50;98.00;;;;;;5052687;28;20981;-65
2023/03/30 06:54:11;;;;;;;3.83;2.07;;;12.50;98.00;;;;;;5051272;28;20578;-65
2023/03/30 06:56:38;;;;;;;8.90;2.43;;;12.60;98.00;;;;;;5052284;28;20464;-65
2023/03/30 06:59:06;;;;;;;3.57;2.30;;;12.60;98.00;;;;;;5052164;28;20481;-66
2023/03/30 07:01:34;;;;;;;5.70;2.57;;;12.50;98.00;;;;;;5052644;28;20786;-65
2023/03/30 07:04:01;;;;;;;16.93;2.63;;;12.50;98.00;;;;;;5052470;28;20468;-65
2023/03/30 07:06:28;;;;;;;6.33;2.40;;;12.60;98.00;;;;;;5052274;28;20454;-66
2023/03/30 07:08:56;;;;;;;3.87;2.17;;;12.90;98.00;;;;;;5051106;28;20460;-65
2023/03/30 07:11:23;;;;;;;3.93;2.00;;;13.00;98.00;;;;;;5052269;28;20454;-65
2023/03/30 07:13:50;;;;;;;4.67;2.23;;;13.00;98.00;;;;;;5052219;28;20514;-65
2023/03/30 07:16:17;;;;;;;7.20;2.70;;;13.00;98.00;;;;;;5052149;28;20560;-66
2023/03/30 07:18:45;;;;;;;7.67;2.70;;;13.00;98.00;;;;;;5052196;28;20966;-65
2023/03/30 07:21:13;;;;;;;6.30;2.57;;;13.00;98.00;;;;;;5052208;28;20852;-66
2023/03/30 07:23:42;;;;;;;5.27;2.57;;;13.00;98.00;;;;;;5051900;28;20468;-65
2023/03/30 07:26:09;;;;;;;2.80;2.10;;;13.00;98.00;;;;;;5052405;28;20860;-66
2023/03/30 07:28:37;;;;;;;6.50;2.27;;;13.10;98.00;;;;;;5051816;28;20555;-64
2023/03/30 07:31:06;;;;;;;4.30;3.10;;;13.20;98.00;;;;;;5052267;28;20553;-66
2023/03/30 07:33:35;;;;;;;5.20;2.63;;;13.30;98.00;;;;;;5051554;28;20556;-66
2023/03/30 07:36:05;;;;;;;7.30;2.43;;;13.40;98.00;;;;;;5051723;28;20493;-66
2023/03/30 07:38:33;;;;;;;23.47;2.50;;;13.40;98.00;;;;;;5051640;28;21220;-65
2023/03/30 07:41:00;;;;;;;6.47;1.83;;;13.40;98.00;;;;;;5050455;28;20496;-66
2023/03/30 07:43:34;;;;;;;15.63;2.07;;;13.50;98.00;;;;;;5051017;28;20453;-66
2023/03/30 07:46:01;;;;;;;4.20;2.57;;;13.40;98.00;;;;;;5052074;28;20686;-65
2023/03/30 07:48:28;;;;;;;7.60;2.20;;;13.50;98.00;;;;;;5051777;28;20446;-66
2023/03/30 07:51:05;;;;;;;6.30;2.07;;;13.50;98.00;;;;;;5050389;28;20577;-66
2023/03/30 07:53:33;;;;;;;5.57;1.77;;;13.50;98.00;;;;;;5051684;28;20459;-66
2023/03/30 07:56:01;;;;;;;8.20;2.27;;;13.60;98.00;;;;;;5050608;28;20460;-66
2023/03/30 07:58:29;;;;;;;6.13;2.43;;;13.50;98.00;;;;;;5051231;28;20969;-66
2023/03/30 08:00:56;;;;;;;9.00;2.30;;;13.50;98.00;;;;;;5051663;28;20465;-66
2023/03/30 08:03:23;;;;;;;12.90;2.33;;;13.40;98.00;;;;;;5051602;28;20457;-68
2023/03/30 08:05:55;;;;;;;3.27;1.90;;;13.30;98.00;;;;;;5051538;28;20540;-67
2023/03/30 08:08:24;;;;;;;7.43;2.00;;;13.40;98.00;;;;;;5049934;28;20457;-67
2023/03/30 08:10:51;;;;;;;2.87;1.97;;;13.50;98.00;;;;;;5051334;28;20557;-67
2023/03/30 08:13:18;;;;;;;4.60;2.33;;;13.60;98.00;;;;;;5051548;28;20460;-67
2023/03/30 08:15:46;;;;;;;3.10;2.33;;;13.60;98.00;;;;;;5051471;28;20853;-67
2023/03/30 08:18:13;;;;;;;4.97;2.30;;;13.70;98.00;;;;;;5051532;28;20450;-67
2023/03/30 08:20:42;;;;;;;3.87;2.00;;;13.70;98.00;;;;;;5051307;28;20463;-67
2023/03/30 08:23:10;;;;;;;4.23;2.17;;;13.60;98.00;;;;;;5051440;28;20464;-67
2023/03/30 08:25:39;;;;;;;6.50;2.07;;;13.60;98.00;;;;;;5051473;28;20456;-67
2023/03/30 08:28:07;;;;;;;3.37;1.90;;;13.50;98.00;;;;;;5051677;28;20507;-67
2023/03/30 08:30:35;;;;;;;4.93;2.10;;;13.40;98.00;;;;;;5051018;28;20839;-67
2023/03/30 08:33:01;;;;;;;3.10;2.00;;;13.40;98.00;;;;;;5050041;28;20463;-67
2023/03/30 08:35:29;;;;;;;3.53;2.10;;;13.40;98.00;;;;;;5053711;28;20529;-67
2023/03/30 08:37:56;;;;;;;6.37;2.13;;;13.40;98.00;;;;;;5055022;28;20965;-67
2023/03/30 08:40:23;;;;;;;8.13;2.47;;;13.40;98.00;;;;;;5054524;28;20943;-67
2023/03/30 08:43:20;;;;;;;3.33;2.00;;;13.60;98.00;;;;;;5054461;28;20514;-67
2023/03/30 08:45:49;;;;;;;4.33;1.83;;;13.50;98.00;;;;;;5054363;28;20463;-67
2023/03/30 08:48:20;;;;;;;8.30;2.37;;;13.40;98.00;;;;;;5054145;28;20539;-67
2023/03/30 08:50:55;;;;;;;3.57;2.10;;;13.30;98.00;;;;;;5053986;28;20488;-68
2023/03/30 08:53:23;;;;;;;2.17;1.87;;;13.40;98.00;;;;;;5054492;28;20464;-68
2023/03/30 08:55:52;;;;;;;4.40;2.60;;;13.40;98.00;;;;;;5054651;28;20457;-67
2023/03/30 08:58:29;;;;;;;5.10;2.93;;;13.40;98.00;;;;;;5054689;28;20548;-67
2023/03/30 09:01:06;;;;;;;4.60;2.23;;;13.20;98.00;;;;;;5054669;28;20471;-67
2023/03/30 09:03:39;;;;;;;3.17;2.00;;;13.30;98.00;;;;;;5054502;28;20464;-67
2023/03/30 09:06:11;;;;;;;5.23;1.90;;;13.30;98.00;;;;;;5054601;28;20534;-67
2023/03/30 09:08:40;;;;;;;6.43;3.47;;;13.30;98.00;;;;;;5054612;28;20454;-67
2023/03/30 09:11:21;;;;;;;5.60;1.93;;;13.40;98.00;;;;;;5053528;28;20487;-67
2023/03/30 09:13:51;;;;;;;3.23;1.90;;;13.50;98.00;;;;;;5054524;28;20461;-67
2023/03/30 09:16:23;;;;;;;5.47;2.53;;;13.50;98.00;;;;;;5054589;28;20461;-67
2023/03/30 09:18:53;;;;;;;4.30;2.03;;;13.40;98.00;;;;;;5054319;28;20461;-67
2023/03/30 09:21:25;;;;;;;5.00;2.57;;;13.50;98.00;;;;;;5054423;28;20458;-67
2023/03/30 09:23:53;;;;;;;2.40;1.57;;;13.40;98.00;;;;;;5054657;28;20452;-67
2023/03/30 09:26:27;;;;;;;2.73;1.90;;;13.40;98.00;;;;;;5054437;28;20940;-67
2023/03/30 09:29:02;;;;;;;3.63;1.80;;;13.40;98.00;;;;;;5054472;28;20453;-67
2023/03/30 09:31:38;;;;;;;7.73;2.07;;;13.40;98.00;;;;;;5054031;28;20579;-67
2023/03/30 09:34:13;;;;;;;3.63;1.93;;;13.40;98.00;;;;;;5054006;28;20464;-67
2023/03/30 09:36:50;;;;;;;3.70;1.67;;;13.30;98.00;;;;;;5053995;28;20457;-67
2023/03/30 09:39:19;;;;;;;2.43;1.53;;;13.30;98.00;;;;;;5053878;28;20460;-67
2023/03/30 09:41:57;;;;;;;4.87;2.67;;;13.30;98.00;;;;;;5053827;28;20503;-67
2023/03/30 09:44:36;;;;;;;3.13;1.90;;;13.40;98.00;;;;;;5053746;28;20461;-67
2023/03/30 09:47:23;;;;;;;2.30;1.83;;;13.40;98.00;;;;;;5053050;28;20464;-67
2023/03/30 09:49:55;;;;;;;3.77;1.90;;;13.40;98.00;;;;;;5053557;28;20528;-67
2023/03/30 09:52:25;;;;;;;2.90;1.80;;;13.40;98.00;;;;;;5053040;28;20864;-67
2023/03/30 09:54:53;;;;;;;2.47;1.80;;;13.60;98.00;;;;;;5051876;28;20516;-67
2023/03/30 09:57:26;;;;;;;2.67;1.90;;;13.60;98.00;;;;;;5051995;28;20450;-67
2023/03/30 09:59:55;;;;;;;4.07;1.93;;;13.40;98.00;;;;;;5052678;28;20891;-67
2023/03/30 10:02:26;;;;;;;5.67;2.47;;;13.40;98.00;;;;;;5065165;28;20455;-67
2023/03/30 10:05:02;;;;;;;6.67;2.10;;;13.30;98.00;;;;;;5071208;28;20452;-67
2023/03/30 10:07:32;;;;;;;3.40;1.90;;;13.30;98.00;;;;;;5058495;28;20936;-67
2023/03/30 10:10:02;;;;;;;4.43;1.80;;;13.30;98.00;;;;;;5052894;28;20718;-67
2023/03/30 10:12:30;;;;;;;4.93;2.03;;;13.50;98.00;;;;;;5052443;28;20944;-67
2023/03/30 10:15:03;;;;;;;1.77;1.47;;;13.50;98.00;;;;;;5052641;28;20458;-67
2023/03/30 10:17:31;;;;;;;3.67;1.83;;;13.50;98.00;;;;;;5052378;28;20457;-67
2023/03/30 10:20:35;;;;;;;2.27;1.80;;;13.50;98.00;;;;;;5052929;28;20458;-67
2023/03/30 10:23:07;;;;;;;2.50;2.00;;;13.50;98.00;;;;;;4990554;28;20483;-67
2023/03/30 10:25:34;;;;;;;4.43;1.80;;;13.50;98.00;;;;;;4990495;28;20456;-67
2023/03/30 10:28:05;;;;;;;2.67;1.80;;;13.40;98.00;;;;;;5022101;28;20959;-67
2023/03/30 10:30:34;;;;;;;2.57;2.00;;;13.40;98.00;;;;;;5052115;28;21025;-67
2023/03/30 10:33:03;;;;;;;2.93;2.20;;;13.50;98.00;;;;;;5051956;28;20484;-67
2023/03/30 10:35:35;;;;;;;2.67;1.70;;;13.50;98.00;;;;;;5050648;28;20602;-67
2023/03/30 10:38:03;;;;;;;3.03;1.60;;;13.60;98.00;;;;;;5051962;28;20845;-67
2023/03/30 10:40:35;;;;;;;9.67;2.43;;;13.50;98.00;;;;;;5051655;28;20548;-67
2023/03/30 10:43:04;;;;;;;3.20;2.23;;;13.50;98.00;;;;;;5051750;28;20475;-67
2023/03/30 10:45:37;;;;;;;3.70;2.00;;;13.60;98.00;;;;;;5051896;28;20575;-67
2023/03/30 10:48:19;;;;;;;8.57;2.10;;;13.60;98.00;;;;;;5051999;28;20461;-67
2023/03/30 10:50:51;;;;;;;6.00;2.10;;;13.50;98.00;;;;;;5051836;28;20490;-67
2023/03/30 10:53:31;;;;;;;2.50;2.10;;;13.50;98.00;;;;;;5051697;28;20553;-67
2023/03/30 10:56:05;;;;;;;5.97;2.17;;;13.70;98.00;;;;;;5051699;28;20462;-67
2023/03/30 10:58:49;;;;;;;2.70;1.73;;;13.90;98.00;;;;;;5050759;28;20854;-67
2023/03/30 11:01:24;;;;;;;7.33;2.47;;;13.80;98.00;;;;;;5051493;28;20473;-67
2023/03/30 11:03:56;;;;;;;3.10;2.00;;;13.80;98.00;;;;;;5051235;28;20460;-67
2023/03/30 11:06:28;;;;;;;2.90;1.90;;;13.80;98.00;;;;;;5051405;28;20462;-67
2023/03/30 11:08:58;;;;;;;3.63;1.90;;;13.80;98.00;;;;;;5051439;28;20803;-67
2023/03/30 11:11:33;;;;;;;2.23;1.97;;;13.70;98.00;;;;;;5051542;28;20539;-67
2023/03/30 11:14:04;;;;;;;2.47;1.97;;;13.60;98.00;;;;;;5051388;28;20471;-67
2023/03/30 11:16:39;;;;;;;3.40;2.10;;;13.60;98.00;;;;;;5051151;28;20472;-67
2023/03/30 11:19:16;;;;;;;2.57;1.83;;;13.70;98.00;;;;;;5051190;28;20539;-67
2023/03/30 11:21:52;;;;;;;3.03;1.97;;;13.70;98.00;;;;;;5051299;28;21042;-67
2023/03/30 11:24:21;;;;;;;3.23;1.90;;;13.80;98.00;;;;;;5051174;28;20539;-67
2023/03/30 11:26:53;;;;;;;2.47;1.70;;;13.90;98.00;;;;;;5051502;28;20982;-67
2023/03/30 11:29:33;;;;;;;3.57;2.40;;;13.80;98.00;;;;;;5051188;28;20507;-67
2023/03/30 11:32:14;;;;;;;2.30;1.70;;;13.70;98.00;;;;;;5047378;28;20493;-67
2023/03/30 11:34:53;;;;;;;5.27;2.10;;;13.80;98.00;;;;;;5050811;28;20548;-67
2023/03/30 11:37:29;;;;;;;2.40;2.00;;;13.80;98.00;;;;;;5051013;28;20460;-67
2023/03/30 11:40:03;;;;;;;2.63;2.07;;;13.70;98.00;;;;;;5050928;28;20454;-67
2023/03/30 11:42:32;;;;;;;3.47;1.83;;;13.90;98.00;;;;;;5049918;28;20540;-67
2023/03/30 11:45:00;;;;;;;3.90;2.00;;;13.90;98.00;;;;;;5049483;28;20527;-67
2023/03/30 11:47:52;;;;;;;3.60;1.83;;;14.10;98.00;;;;;;5050944;28;20952;-69
2023/03/30 11:50:30;;;;;;;4.60;1.83;;;14.30;98.00;;;;;;5050765;28;20476;-69
2023/03/30 11:53:10;;;;;;;1.83;1.50;;;14.80;98.00;;;;;;5050926;28;20556;-66
2023/03/30 11:55:47;;;;;;;3.57;2.00;;;15.40;98.00;;;;;;5050756;28;20460;-66
2023/03/30 11:58:23;;;;;;;2.70;1.90;;;15.20;98.00;;;;;;5050861;28;20450;-66
2023/03/30 12:01:03;;;;;;;3.20;1.80;;;15.10;98.00;;;;;;5050514;28;20633;-66
2023/03/30 12:03:41;;;;;;;2.90;1.80;;;14.90;98.00;;;;;;5050520;28;21013;-66
2023/03/30 12:06:31;;;;;;;3.87;2.47;;;14.70;98.00;;;;;;5050795;28;20477;-66
2023/03/30 12:09:25;;;;;;;4.67;2.30;;;14.70;98.00;;;;;;5051016;28;20460;-66
2023/03/30 12:11:57;;;;;;;4.77;2.13;;;14.50;98.00;;;;;;5054807;28;20897;-66
2023/03/30 12:14:41;;;;;;;4.13;2.30;;;14.50;98.00;;;;;;5054465;28;20465;-66
2023/03/30 12:17:25;;;;;;;5.40;2.30;;;14.40;98.00;;;;;;5054701;28;21011;-66
2023/03/30 12:19:59;;;;;;;3.70;1.93;;;14.40;98.00;;;;;;5054751;28;20519;-66
2023/03/30 12:22:34;;;;;;;2.70;2.00;;;14.40;98.00;;;;;;5054544;28;20954;-66
2023/03/30 12:25:12;;;;;;;5.33;2.40;;;14.40;98.00;;;;;;5054660;28;21013;-66
2023/03/30 12:27:57;;;;;;;8.00;1.87;;;14.30;98.00;;;;;;5054498;28;20464;-67
2023/03/30 12:30:44;;;;;;;2.60;1.77;;;14.30;98.00;;;;;;5054469;28;20506;-67
2023/03/30 12:33:13;;;;;;;4.70;2.17;;;14.30;98.00;;;;;;5054265;28;20484;-67
2023/03/30 12:36:01;;;;;;;5.23;2.30;;;14.40;98.00;;;;;;5054564;28;20458;-67
2023/03/30 12:38:37;;;;;;;3.83;2.00;;;14.50;98.00;;;;;;5054235;28;20464;-66
2023/03/30 12:44:08;;;;;;;4.00;2.10;;;14.70;98.00;;;;;;5053615;28;20829;-67
2023/03/30 12:46:41;;;;;;;4.33;2.40;;;14.80;98.00;;;;;;5054340;28;20529;-66
2023/03/30 12:49:23;;;;;;;2.40;1.90;;;15.00;98.00;;;;;;5053837;28;20560;-64
2023/03/30 12:52:00;;;;;;;3.00;2.00;;;15.20;98.00;;;;;;5054387;28;20488;-64
2023/03/30 12:54:54;;;;;;;1.90;1.67;;;15.40;98.00;;;;;;5054420;28;20811;-64
2023/03/30 12:57:34;;;;;;;2.47;1.80;;;15.60;98.00;;;;;;5053828;28;20465;-69
2023/03/30 13:00:26;;;;;;;12.97;2.80;;;16.10;98.00;;;;;;5053824;28;20465;-67
2023/03/30 13:03:35;;;;;;;2.40;1.97;;;16.40;98.00;;;;;;5062532;28;20506;-68
2023/03/30 13:06:05;;;;;;;4.53;2.33;;;16.80;98.00;;;;;;5029685;28;20451;-67
2023/03/30 13:08:36;;;;;;;7.60;2.40;;;17.50;98.00;;;;;;5034684;28;20462;-68
2023/03/30 13:11:12;;;;;;;6.40;2.30;;;17.40;98.00;;;;;;5034751;28;20831;-67
2023/03/30 13:13:51;;;;;;;4.70;2.67;;;17.50;98.00;;;;;;5033400;28;20454;-67